Time;durP1;ratioP1;P1;durP2;ratioP2;P2;SDS_P1;SDS_P2;PMS_P1;PMS_P2;Temp;Humidity;BMP_temperature;BMP_pressure;BME280_temperature;BME280_humidity;BME280_pressure;Samples;Min_cycle;Max_cycle;Signal;HPM_P1;HPM_P2
2022/01/02 00:03:02;;;;;;;;;;;;;;;8.18;100.00;101282.69;5599890;31;34057;-84
2022/01/02 00:06:07;;;;;;;;;;;;;;;8.28;100.00;101267.94;5599190;31;34045;-83
2022/01/02 00:09:13;;;;;;;;;;;;;;;8.34;100.00;101270.19;5599062;31;33607;-84
2022/01/02 00:12:17;;;;;;;;;;;;;;;8.19;100.00;101276.47;5599297;31;34361;-84
2022/01/02 00:15:23;;;;;;;;;;;;;;;8.04;100.00;101273.06;5600330;31;34106;-83
2022/01/02 00:18:26;;;;;;;;;;;;;;;8.03;100.00;101259.03;5600243;31;33927;-83
2022/01/02 00:21:33;;;;;;;;;;;;;;;7.97;100.00;101269.97;5599648;31;34993;-84
2022/01/02 00:24:36;;;;;;;;;;;;;;;7.93;100.00;101268.50;5600258;31;33926;-84
2022/01/02 00:27:39;;;;;;;;;;;;;;;7.79;100.00;101276.44;5601553;31;33934;-84
2022/01/02 00:30:43;;;;;;;;;;;;;;;7.85;100.00;101270.75;5602165;31;33400;-84
2022/01/02 00:33:46;;;;;;;;;;;;;;;7.92;100.00;101272.06;5600621;31;34267;-84
2022/01/02 00:36:49;;;;;;;;;;;;;;;7.97;100.00;101269.97;5602190;31;34899;-84
2022/01/02 00:39:52;;;;;;;;;;;;;;;7.88;100.00;101273.22;5600116;31;33965;-84
2022/01/02 00:43:02;;;;;;;;;;;;;;;7.86;100.00;101283.00;5602510;31;34733;-84
2022/01/02 00:46:08;;;;;;;;;;;;;;;7.85;100.00;101283.94;5601795;31;34935;-84
2022/01/02 00:49:12;;;;;;;;;;;;;;;7.79;100.00;101281.72;5601413;31;34164;-84
2022/01/02 00:52:18;;;;;;;;;;;;;;;7.77;100.00;101283.59;5600914;31;33995;-86
2022/01/02 00:55:25;;;;;;;;;;;;;;;7.68;100.00;101285.03;5600070;31;34273;-85
2022/01/02 00:58:35;;;;;;;;;;;;;;;7.82;100.00;101287.63;5599876;31;33821;-84
2022/01/02 01:01:39;;;;;;;;;;;;;;;7.79;100.00;101287.81;5600486;31;33963;-84
2022/01/02 01:04:43;;;;;;;;;;;;;;;7.65;100.00;101291.34;5602040;31;33885;-84
2022/01/02 01:07:51;;;;;;;;;;;;;;;7.48;100.00;101283.69;5600089;31;33799;-84
2022/01/02 01:10:54;;;;;;;;;;;;;;;7.53;100.00;101276.31;5602204;31;33527;-84
2022/01/02 01:13:58;;;;;;;;;;;;;;;7.32;100.00;101284.63;5600472;31;34455;-86
2022/01/02 01:17:02;;;;;;;;;;;;;;;7.11;100.00;101277.13;5575099;31;810053;-85
2022/01/02 01:20:07;;;;;;;;;;;;;;;7.08;100.00;101279.94;5601404;31;34488;-84
2022/01/02 01:23:16;;;;;;;;;;;;;;;7.14;100.00;101280.53;5600748;31;33959;-84
2022/01/02 01:26:19;;;;;;;;;;;;;;;7.23;100.00;101274.69;5600553;31;33723;-84
2022/01/02 01:29:21;;;;;;;;;;;;;;;7.28;100.00;101272.59;5599044;31;34151;-85
2022/01/02 01:32:24;;;;;;;;;;;;;;;7.37;100.00;101277.31;5599360;31;33420;-85
2022/01/02 01:35:27;;;;;;;;;;;;;;;7.56;100.00;101270.87;5599340;31;33847;-85
2022/01/02 01:38:30;;;;;;;;;;;;;;;7.51;100.00;101279.06;5600576;31;34307;-85
2022/01/02 01:41:35;;;;;;;;;;;;;;;7.50;100.00;101279.12;5601806;31;34885;-86
2022/01/02 01:45:02;;;;;;;;;;;;;;;7.28;100.00;101272.59;5600456;31;33413;-86
2022/01/02 01:48:04;;;;;;;;;;;;;;;7.02;100.00;101269.81;5601132;31;33897;-86
2022/01/02 01:51:07;;;;;;;;;;;;;;;6.92;100.00;101266.06;5600518;31;34835;-85
2022/01/02 01:54:10;;;;;;;;;;;;;;;6.89;100.00;101263.59;5601269;31;33684;-85
2022/01/02 01:57:13;;;;;;;;;;;;;;;6.76;100.00;101266.97;5602588;31;34738;-85
2022/01/02 02:00:17;;;;;;;;;;;;;;;6.61;100.00;101273.16;5600563;31;33808;-85
2022/01/02 02:03:24;;;;;;;;;;;;;;;6.72;100.00;101275.97;5600263;31;33937;-85
2022/01/02 02:06:27;;;;;;;;;;;;;;;6.73;100.00;101261.06;5601304;31;34953;-85
2022/01/02 02:13:02;;;;;;;;;;;;;;;6.58;100.00;101255.78;5585659;31;35003;-85
2022/01/02 02:16:08;;;;;;;;;;;;;;;6.39;100.00;101269.16;5601054;31;33904;-86
2022/01/02 02:19:11;;;;;;;;;;;;;;;6.20;100.00;101258.88;5599263;31;33758;-85
2022/01/02 02:22:14;;;;;;;;;;;;;;;6.19;100.00;101262.47;5600169;31;34713;-85
2022/01/02 02:25:19;;;;;;;;;;;;;;;6.12;100.00;101255.88;5599621;31;34583;-85
2022/01/02 02:28:27;;;;;;;;;;;;;;;6.13;100.00;101253.16;5597971;31;33884;-85
2022/01/02 02:31:30;;;;;;;;;;;;;;;6.09;100.00;101261.28;5599993;31;33916;-85
2022/01/02 02:34:32;;;;;;;;;;;;;;;5.98;100.00;101259.25;5599913;31;33952;-85
2022/01/02 02:37:40;;;;;;;;;;;;;;;6.00;100.00;101255.62;5599159;31;33611;-85
2022/01/02 02:40:46;;;;;;;;;;;;;;;6.13;100.00;101252.31;5598840;31;34004;-85
2022/01/02 02:44:00;;;;;;;;;;;;;;;6.00;100.00;101239.03;5600174;31;34236;-85
2022/01/02 02:50:32;;;;;;;;;;;;;;;6.02;100.00;101239.81;5600355;31;34531;-86
2022/01/02 02:53:38;;;;;;;;;;;;;;;5.94;100.00;101247.22;5599900;31;34036;-85
2022/01/02 02:56:53;;;;;;;;;;;;;;;5.74;100.00;101246.59;5600166;31;33855;-86
2022/01/02 02:59:59;;;;;;;;;;;;;;;5.59;100.00;101247.44;5599913;31;34717;-86
2022/01/02 03:03:02;;;;;;;;;;;;;;;5.47;100.00;101246.34;5598899;31;33950;-85
2022/01/02 03:06:05;;;;;;;;;;;;;;;5.34;100.00;101254.06;5598456;31;34289;-85
2022/01/02 03:09:09;;;;;;;;;;;;;;;5.22;100.00;101245.94;5598716;31;34255;-86
2022/01/02 03:12:12;;;;;;;;;;;;;;;5.14;100.00;101242.84;5598991;31;34598;-85
2022/01/02 03:15:16;;;;;;;;;;;;;;;5.04;100.00;101247.75;5598002;31;33871;-86
2022/01/02 03:18:18;;;;;;;;;;;;;;;4.91;100.00;101237.06;5597616;31;33687;-85
2022/01/02 03:21:21;;;;;;;;;;;;;;;4.85;100.00;101245.28;5598505;31;34184;-85
2022/01/02 03:24:24;;;;;;;;;;;;;;;4.77;100.00;101242.22;5598059;31;34689;-85
2022/01/02 03:27:32;;;;;;;;;;;;;;;4.68;100.00;101224.31;5597630;31;34415;-85
2022/01/02 03:30:35;;;;;;;;;;;;;;;4.74;100.00;101229.25;5599546;31;33998;-85
2022/01/02 03:33:37;;;;;;;;;;;;;;;4.67;100.00;101227.91;5598679;31;33662;-85
2022/01/02 03:36:41;;;;;;;;;;;;;;;4.54;100.00;101225.91;5597684;31;33982;-85
2022/01/02 03:39:50;;;;;;;;;;;;;;;4.56;100.00;101220.56;5600089;31;33984;-85
2022/01/02 03:42:54;;;;;;;;;;;;;;;4.55;100.00;101217.13;5600568;31;34524;-85
2022/01/02 03:46:06;;;;;;;;;;;;;;;4.49;100.00;101209.56;5600746;31;33820;-85
2022/01/02 03:49:11;;;;;;;;;;;;;;;4.45;100.00;101202.78;5600737;31;35059;-85
2022/01/02 03:52:14;;;;;;;;;;;;;;;4.45;100.00;101208.00;5600251;31;33945;-85
2022/01/02 03:55:16;;;;;;;;;;;;;;;4.49;100.00;101214.81;5602010;31;33707;-86
2022/01/02 03:58:19;;;;;;;;;;;;;;;4.54;100.00;101228.53;5601180;31;33779;-85
2022/01/02 04:01:22;;;;;;;;;;;;;;;4.54;100.00;101211.94;5601499;31;33704;-86
2022/01/02 04:04:25;;;;;;;;;;;;;;;4.59;100.00;101217.81;5601516;31;33471;-85
2022/01/02 04:07:33;;;;;;;;;;;;;;;4.48;100.00;101215.72;5602681;31;35035;-85
2022/01/02 04:10:36;;;;;;;;;;;;;;;4.45;100.00;101208.88;5601601;31;33707;-86
2022/01/02 04:13:39;;;;;;;;;;;;;;;4.50;100.00;101211.25;5603131;31;33961;-85
2022/01/02 04:16:44;;;;;;;;;;;;;;;4.60;100.00;101216.87;5602535;31;34949;-85
2022/01/02 04:19:46;;;;;;;;;;;;;;;4.63;100.00;101219.31;5600844;31;34583;-86
2022/01/02 04:22:50;;;;;;;;;;;;;;;4.68;100.00;101224.31;5601533;31;33552;-86
2022/01/02 04:25:55;;;;;;;;;;;;;;;4.57;100.00;101215.25;5601814;31;35041;-86
2022/01/02 04:28:58;;;;;;;;;;;;;;;4.43;100.00;101221.22;5602028;31;34817;-86
2022/01/02 04:32:04;;;;;;;;;;;;;;;4.29;100.00;101228.91;5601143;31;33849;-85
2022/01/02 04:35:06;;;;;;;;;;;;;;;4.33;100.00;101231.28;5602073;31;35636;-85
2022/01/02 04:38:13;;;;;;;;;;;;;;;4.25;100.00;101233.47;5601953;31;33922;-85
2022/01/02 04:41:16;;;;;;;;;;;;;;;4.18;100.00;101219.00;5602423;31;33797;-86
2022/01/02 04:44:19;;;;;;;;;;;;;;;4.09;100.00;101222.09;5600914;31;34269;-86
2022/01/02 04:47:23;;;;;;;;;;;;;;;3.98;100.00;101223.47;5602493;31;33897;-85
2022/01/02 04:50:26;;;;;;;;;;;;;;;3.97;100.00;101216.53;5602160;31;33305;-86
2022/01/02 04:53:30;;;;;;;;;;;;;;;3.91;100.00;101229.06;5601831;31;34023;-86
2022/01/02 04:56:33;;;;;;;;;;;;;;;3.85;100.00;101225.81;5602137;31;33160;-85
2022/01/02 04:59:38;;;;;;;;;;;;;;;3.81;100.00;101228.66;5604150;31;34803;-86
2022/01/02 05:02:41;;;;;;;;;;;;;;;3.69;100.00;101220.47;5603141;31;34861;-86
2022/01/02 05:05:47;;;;;;;;;;;;;;;3.70;100.00;101222.19;5602214;31;34856;-86
2022/01/02 05:08:49;;;;;;;;;;;;;;;3.65;100.00;101220.72;5588355;31;33797;-85
2022/01/02 05:11:53;;;;;;;;;;;;;;;3.55;100.00;101212.44;5601026;31;35012;-86
2022/01/02 05:14:57;;;;;;;;;;;;;;;3.50;100.00;101214.44;5602033;31;33759;-86
2022/01/02 05:18:00;;;;;;;;;;;;;;;3.44;100.00;101204.25;5601229;31;34841;-85
2022/01/02 05:21:03;;;;;;;;;;;;;;;3.39;100.00;101201.88;5602347;31;33503;-85
2022/01/02 05:24:09;;;;;;;;;;;;;;;3.38;100.00;101203.66;5602941;31;34775;-85
2022/01/02 05:27:11;;;;;;;;;;;;;;;3.36;100.00;101207.25;5601259;31;34483;-85
2022/01/02 05:30:17;;;;;;;;;;;;;;;3.36;100.00;101210.72;5604013;31;33837;-85
2022/01/02 05:33:22;;;;;;;;;;;;;;;3.38;100.00;101215.84;5602684;31;34429;-85
2022/01/02 05:36:25;;;;;;;;;;;;;;;3.33;100.00;101212.63;5601761;31;34735;-85
2022/01/02 05:39:28;;;;;;;;;;;;;;;3.23;100.00;101206.97;5601876;31;34877;-85
2022/01/02 05:42:32;;;;;;;;;;;;;;;3.09;100.00;101200.63;5601893;31;33962;-87
2022/01/02 05:45:34;;;;;;;;;;;;;;;2.98;100.00;101202.91;5600771;31;33808;-85
2022/01/02 05:48:38;;;;;;;;;;;;;;;2.91;100.00;101201.47;5601655;31;34886;-85
2022/01/02 05:51:41;;;;;;;;;;;;;;;2.83;100.00;101204.41;5601984;31;34053;-86
2022/01/02 05:54:43;;;;;;;;;;;;;;;2.77;100.00;101204.69;5602556;31;34053;-85
2022/01/02 05:57:46;;;;;;;;;;;;;;;2.77;100.00;101200.31;5600735;31;33884;-86
2022/01/02 06:00:49;;;;;;;;;;;;;;;2.74;100.00;101200.47;5600519;31;33698;-85
2022/01/02 06:03:55;;;;;;;;;;;;;;;2.68;100.00;101192.87;5600321;31;34494;-86
2022/01/02 06:06:58;;;;;;;;;;;;;;;2.68;100.00;101200.72;5598687;31;33738;-86
2022/01/02 06:10:01;;;;;;;;;;;;;;;2.64;100.00;101193.97;5601077;31;33687;-85
2022/01/02 06:13:05;;;;;;;;;;;;;;;2.65;100.00;101195.63;5600801;31;34029;-85
2022/01/02 06:16:16;;;;;;;;;;;;;;;2.62;100.00;101195.78;5601383;31;34289;-85
2022/01/02 06:19:22;;;;;;;;;;;;;;;2.65;100.00;101193.00;5599350;31;34049;-85
2022/01/02 06:22:24;;;;;;;;;;;;;;;2.63;100.00;101194.88;5600830;31;33965;-85
2022/01/02 06:25:27;;;;;;;;;;;;;;;2.60;100.00;101190.59;5599904;31;34840;-85
2022/01/02 06:28:30;;;;;;;;;;;;;;;2.61;100.00;101194.91;5600956;31;34671;-86
2022/01/02 06:31:33;;;;;;;;;;;;;;;2.55;100.00;101187.38;5600952;31;34069;-85
2022/01/02 06:34:36;;;;;;;;;;;;;;;2.54;100.00;101193.50;5601530;31;34840;-86
2022/01/02 06:37:39;;;;;;;;;;;;;;;2.55;100.00;101192.59;5602242;31;33321;-85
2022/01/02 06:40:44;;;;;;;;;;;;;;;2.58;100.00;101199.44;5600859;31;34112;-86
2022/01/02 06:43:52;;;;;;;;;;;;;;;2.50;100.00;101185.87;5601177;31;34200;-85
2022/01/02 06:46:55;;;;;;;;;;;;;;;2.52;100.00;101199.72;5600055;31;33949;-85
2022/01/02 06:50:02;;;;;;;;;;;;;;;2.51;100.00;101200.63;5599740;31;33684;-85
2022/01/02 06:53:08;;;;;;;;;;;;;;;2.54;100.00;101192.63;5600087;31;33659;-85
2022/01/02 06:56:11;;;;;;;;;;;;;;;2.56;100.00;101191.69;5606121;31;34467;-84
2022/01/02 06:59:14;;;;;;;;;;;;;;;2.54;100.00;101187.41;5605565;31;34954;-84
2022/01/02 07:02:20;;;;;;;;;;;;;;;2.52;100.00;101195.34;5599671;31;33591;-85
2022/01/02 07:05:23;;;;;;;;;;;;;;;2.57;100.00;101205.56;5599189;31;33801;-86
2022/01/02 07:08:27;;;;;;;;;;;;;;;2.62;100.00;101211.47;5599648;31;34158;-85
2022/01/02 07:11:30;;;;;;;;;;;;;;;2.68;100.00;101208.56;5600426;31;33701;-85
2022/01/02 07:14:33;;;;;;;;;;;;;;;2.68;100.00;101211.19;5601262;31;34282;-85
2022/01/02 07:17:35;;;;;;;;;;;;;;;2.71;100.00;101205.81;5602597;31;33925;-85
2022/01/02 07:20:38;;;;;;;;;;;;;;;2.76;100.00;101209.06;5601105;31;33343;-86
2022/01/02 07:23:41;;;;;;;;;;;;;;;2.80;100.00;101208.94;5601142;31;34118;-85
2022/01/02 07:26:44;;;;;;;;;;;;;;;2.86;100.00;101214.75;5602961;31;33954;-85
2022/01/02 07:29:51;;;;;;;;;;;;;;;2.93;100.00;101210.91;5602342;31;34965;-85
2022/01/02 07:32:53;;;;;;;;;;;;;;;2.97;100.00;101198.59;5601663;31;33555;-85
2022/01/02 07:35:56;;;;;;;;;;;;;;;3.01;100.00;101202.72;5602084;31;33805;-85
2022/01/02 07:39:06;;;;;;;;;;;;;;;3.07;100.00;101201.59;5605299;31;33642;-84
2022/01/02 07:42:09;;;;;;;;;;;;;;;3.11;100.00;101207.53;5603473;31;33971;-85
2022/01/02 07:45:12;;;;;;;;;;;;;;;3.14;100.00;101202.16;5602969;31;34659;-85
2022/01/02 07:48:16;;;;;;;;;;;;;;;3.20;100.00;101200.13;5602130;31;34100;-84
2022/01/02 07:51:18;;;;;;;;;;;;;;;3.29;100.00;101198.84;5603467;31;34899;-85
2022/01/02 07:54:21;;;;;;;;;;;;;;;3.34;100.00;101196.84;5603544;31;34114;-85
2022/01/02 07:57:25;;;;;;;;;;;;;;;3.39;100.00;101196.63;5606062;31;33991;-86
2022/01/02 08:00:30;;;;;;;;;;;;;;;3.48;100.00;101200.59;5601386;31;34126;-84
2022/01/02 08:03:33;;;;;;;;;;;;;;;3.55;100.00;101196.75;5601899;31;33555;-85
2022/01/02 08:06:37;;;;;;;;;;;;;;;3.67;100.00;101190.09;5601233;31;33852;-84
2022/01/02 08:09:40;;;;;;;;;;;;;;;3.90;100.00;101188.94;5602725;31;33734;-86
2022/01/02 08:12:42;;;;;;;;;;;;;;;3.91;100.00;101172.31;5602174;31;33561;-85
2022/01/02 08:15:48;;;;;;;;;;;;;;;3.99;100.00;101166.69;5601972;31;34597;-86
2022/01/02 08:18:50;;;;;;;;;;;;;;;3.92;100.00;101163.53;5602907;31;33974;-85
2022/01/02 08:21:53;;;;;;;;;;;;;;;4.02;100.00;101169.16;5601910;31;34929;-85
2022/01/02 08:24:58;;;;;;;;;;;;;;;4.11;100.00;101170.47;5602229;31;34876;-85
2022/01/02 08:28:01;;;;;;;;;;;;;;;4.12;100.00;101165.16;5602529;31;33859;-85
2022/01/02 08:31:11;;;;;;;;;;;;;;;4.21;100.00;101162.97;5603225;31;33973;-85
2022/01/02 08:34:14;;;;;;;;;;;;;;;4.33;100.00;101168.41;5603431;31;34128;-86
2022/01/02 08:37:16;;;;;;;;;;;;;;;4.46;100.00;101163.41;5602197;31;34961;-85
2022/01/02 08:40:19;;;;;;;;;;;;;;;4.52;100.00;101162.25;5602709;31;34040;-86
2022/01/02 08:43:24;;;;;;;;;;;;;;;4.63;100.00;101174.75;5603602;31;33998;-85
2022/01/02 08:46:27;;;;;;;;;;;;;;;4.64;100.00;101161.59;5603885;31;33770;-86
2022/01/02 08:49:30;;;;;;;;;;;;;;;4.73;100.00;101159.41;5602601;31;34884;-86
2022/01/02 08:52:35;;;;;;;;;;;;;;;4.83;100.00;101147.50;5601937;31;34696;-85
2022/01/02 08:55:37;;;;;;;;;;;;;;;4.94;100.00;101163.47;5601281;31;33566;-87
2022/01/02 08:58:40;;;;;;;;;;;;;;;5.03;100.00;101156.03;5601228;31;33575;-85
2022/01/02 09:01:43;;;;;;;;;;;;;;;5.16;100.00;101150.97;5601971;31;34556;-86
2022/01/02 09:04:46;;;;;;;;;;;;;;;5.30;100.00;101142.31;5599294;31;33460;-86
2022/01/02 09:07:49;;;;;;;;;;;;;;;5.42;100.00;101141.63;5600837;31;33821;-86
2022/01/02 09:10:51;;;;;;;;;;;;;;;5.57;100.00;101146.00;5601442;31;34892;-84
2022/01/02 09:13:55;;;;;;;;;;;;;;;5.94;100.00;101144.78;5602074;31;34631;-84
2022/01/02 09:16:58;;;;;;;;;;;;;;;6.17;100.00;101144.31;5599429;31;34538;-84
2022/01/02 09:20:01;;;;;;;;;;;;;;;6.23;100.00;101142.25;5600841;31;34093;-86
2022/01/02 09:23:03;;;;;;;;;;;;;;;6.15;100.00;101138.28;5599741;31;34614;-84
2022/01/02 09:26:08;;;;;;;;;;;;;;;6.17;100.00;101139.06;5599756;31;34054;-84
2022/01/02 09:29:11;;;;;;;;;;;;;;;6.32;100.00;101139.91;5600067;31;34887;-84
2022/01/02 09:32:17;;;;;;;;;;;;;;;6.31;100.00;101142.63;5598550;31;34020;-83
2022/01/02 09:35:19;;;;;;;;;;;;;;;6.59;100.00;101148.81;5599288;31;33910;-85
2022/01/02 09:38:22;;;;;;;;;;;;;;;6.80;100.00;101142.25;5598935;31;34602;-85
2022/01/02 09:41:24;;;;;;;;;;;;;;;6.85;100.00;101146.34;5599023;31;34439;-85
2022/01/02 09:44:29;;;;;;;;;;;;;;;6.87;100.00;101126.06;5598874;31;34088;-85
2022/01/02 09:47:32;;;;;;;;;;;;;;;6.96;100.00;101125.47;5599418;31;33977;-85
2022/01/02 09:50:37;;;;;;;;;;;;;;;7.01;100.00;101112.03;5600024;31;33945;-86
2022/01/02 09:53:44;;;;;;;;;;;;;;;7.19;100.00;101099.47;5599605;31;34221;-86
2022/01/02 09:56:47;;;;;;;;;;;;;;;7.34;100.00;101098.50;5598882;31;34952;-85
2022/01/02 09:59:50;;;;;;;;;;;;;;;7.36;100.00;101082.59;5600350;31;34232;-85
2022/01/02 10:03:09;;;;;;;;;;;;;;;7.52;100.00;101079.78;5599406;31;35017;-86
2022/01/02 10:06:20;;;;;;;;;;;;;;;7.59;100.00;101075.81;5599486;31;34026;-86
2022/01/02 10:09:33;;;;;;;;;;;;;;;7.76;100.00;101071.19;5599156;31;33546;-85
2022/01/02 10:12:37;;;;;;;;;;;;;;;7.97;100.00;101074.16;5600166;31;34550;-86
2022/01/02 10:15:43;;;;;;;;;;;;;;;7.93;100.00;101070.87;5600245;31;33645;-86
2022/01/02 10:18:48;;;;;;;;;;;;;;;7.98;100.00;101060.84;5600441;31;34867;-86
2022/01/02 10:22:16;;;;;;;;;;;;;;;8.07;100.00;101069.06;5600468;31;33836;-86
2022/01/02 10:25:45;;;;;;;;;;;;;;;8.00;100.00;101066.88;5596958;31;33896;-85
2022/01/02 10:28:48;;;;;;;;;;;;;;;8.02;100.00;101064.13;5579768;31;33552;-86
2022/01/02 10:31:54;;;;;;;;;;;;;;;7.94;100.00;101055.91;5601041;31;34820;-85
2022/01/02 10:35:23;;;;;;;;;;;;;;;7.89;100.00;101041.25;5598825;31;34710;-85
2022/01/02 10:38:26;;;;;;;;;;;;;;;7.91;100.00;101022.72;5598816;31;34409;-86
2022/01/02 10:41:30;;;;;;;;;;;;;;;7.91;100.00;101006.06;5600461;31;33265;-86
2022/01/02 10:44:41;;;;;;;;;;;;;;;8.01;100.00;101002.69;5599339;31;33655;-86
2022/01/02 10:47:44;;;;;;;;;;;;;;;8.32;100.00;101003.16;5600193;31;34052;-86
2022/01/02 10:51:07;;;;;;;;;;;;;;;8.53;100.00;101007.84;5601191;31;33882;-86
2022/01/02 10:54:09;;;;;;;;;;;;;;;8.63;100.00;101008.88;5601036;31;33816;-86
2022/01/02 10:57:13;;;;;;;;;;;;;;;8.70;100.00;100989.97;5599963;31;34909;-86
2022/01/02 11:00:16;;;;;;;;;;;;;;;8.76;100.00;100982.47;5601134;31;34837;-86
2022/01/02 11:03:23;;;;;;;;;;;;;;;8.88;100.00;100972.78;5604205;31;34737;-85
2022/01/02 11:06:30;;;;;;;;;;;;;;;8.99;100.00;100965.87;5605686;31;34828;-86
2022/01/02 11:09:36;;;;;;;;;;;;;;;9.10;100.00;100974.69;5605769;31;34820;-85
2022/01/02 11:12:39;;;;;;;;;;;;;;;9.13;100.00;100963.03;5604606;31;34546;-85
2022/01/02 11:15:43;;;;;;;;;;;;;;;9.26;100.00;100950.59;5601256;31;33938;-85
2022/01/02 11:18:47;;;;;;;;;;;;;;;9.29;100.00;100952.16;5600834;31;34165;-86
2022/01/02 11:21:52;;;;;;;;;;;;;;;9.38;100.00;100945.34;5600987;31;34830;-85
2022/01/02 11:25:01;;;;;;;;;;;;;;;9.52;99.25;100941.63;5600184;31;33970;-85
2022/01/02 11:28:09;;;;;;;;;;;;;;;9.55;99.14;100936.94;5599941;31;33268;-85
2022/01/02 11:31:34;;;;;;;;;;;;;;;9.58;98.92;100934.06;5600212;31;34066;-85
2022/01/02 11:34:44;;;;;;;;;;;;;;;9.59;97.85;100932.25;5590183;31;34246;-86
2022/01/02 11:37:53;;;;;;;;;;;;;;;9.63;97.45;100927.56;5599121;31;34418;-87
2022/01/02 11:40:56;;;;;;;;;;;;;;;9.61;97.84;100926.88;5599186;31;33613;-85
2022/01/02 11:44:00;;;;;;;;;;;;;;;9.63;97.22;100906.44;5601355;31;33550;-86
2022/01/02 11:47:03;;;;;;;;;;;;;;;9.61;96.49;100903.09;5600692;31;34016;-86
2022/01/02 11:50:28;;;;;;;;;;;;;;;9.57;96.82;100898.03;5598790;31;34061;-88
2022/01/02 11:53:35;;;;;;;;;;;;;;;9.72;95.82;100893.34;5600283;31;34032;-87
2022/01/02 11:56:42;;;;;;;;;;;;;;;9.78;96.19;100885.91;5598798;31;34066;-87
2022/01/02 11:59:48;;;;;;;;;;;;;;;9.98;95.05;100884.31;5598180;31;33848;-86
2022/01/02 12:02:50;;;;;;;;;;;;;;;10.02;94.75;100876.00;5599993;31;33902;-86
2022/01/02 12:06:12;;;;;;;;;;;;;;;10.00;95.16;100874.44;5599902;31;34405;-87
2022/01/02 12:09:34;;;;;;;;;;;;;;;9.97;95.22;100866.75;5601936;31;34090;-86
2022/01/02 12:12:55;;;;;;;;;;;;;;;9.97;95.09;100867.63;5600455;31;33908;-85
2022/01/02 12:16:00;;;;;;;;;;;;;;;9.86;95.70;100868.47;5600227;31;36003;-84
2022/01/02 12:19:03;;;;;;;;;;;;;;;9.87;95.80;100856.09;5600580;31;34966;-84
2022/01/02 12:22:13;;;;;;;;;;;;;;;9.85;95.89;100853.56;5600958;31;33886;-84
2022/01/02 12:25:18;;;;;;;;;;;;;;;9.96;95.62;100836.03;5601322;31;34191;-84
2022/01/02 12:28:20;;;;;;;;;;;;;;;10.05;94.86;100832.63;5600183;31;35488;-85
2022/01/02 12:31:28;;;;;;;;;;;;;;;10.11;95.13;100826.00;5601470;31;34465;-85
2022/01/02 12:34:33;;;;;;;;;;;;;;;10.27;93.87;100822.94;5599681;31;33700;-85
2022/01/02 12:37:36;;;;;;;;;;;;;;;10.51;93.01;100828.03;5599641;31;33675;-85
2022/01/02 12:40:39;;;;;;;;;;;;;;;10.52;92.26;100829.72;5599304;31;33977;-84
2022/01/02 12:43:51;;;;;;;;;;;;;;;10.61;91.18;100828.12;5600990;31;33403;-85
2022/01/02 12:46:59;;;;;;;;;;;;;;;10.56;91.44;100830.28;5599476;31;34946;-85
2022/01/02 12:50:06;;;;;;;;;;;;;;;10.57;90.46;100826.69;5599581;31;33921;-85
2022/01/02 12:53:10;;;;;;;;;;;;;;;10.46;90.84;100814.38;5603777;31;34609;-86
2022/01/02 12:56:29;;;;;;;;;;;;;;;10.53;90.69;100814.69;5602273;31;34367;-85
2022/01/02 12:59:34;;;;;;;;;;;;;;;10.54;90.33;100821.62;5599935;31;34152;-85
2022/01/02 13:02:43;;;;;;;;;;;;;;;10.48;90.42;100813.25;5604464;31;34114;-85
2022/01/02 13:05:50;;;;;;;;;;;;;;;10.47;90.92;100811.59;5600029;31;33593;-85
2022/01/02 13:08:56;;;;;;;;;;;;;;;10.43;91.36;100807.50;5600355;31;34036;-86
2022/01/02 13:11:59;;;;;;;;;;;;;;;10.58;91.54;100812.50;5599340;31;33788;-85
2022/01/02 13:15:11;;;;;;;;;;;;;;;10.56;91.80;100809.97;5599548;31;33787;-85
2022/01/02 13:18:14;;;;;;;;;;;;;;;10.52;92.17;100805.91;5599437;31;33922;-85
2022/01/02 13:21:17;;;;;;;;;;;;;;;10.61;91.81;100801.66;5597988;31;35061;-85
2022/01/02 13:24:29;;;;;;;;;;;;;;;10.53;92.36;100798.81;5600459;31;33977;-85
2022/01/02 13:27:33;;;;;;;;;;;;;;;10.58;92.92;100801.91;5599361;31;34091;-85
2022/01/02 13:30:39;;;;;;;;;;;;;;;10.56;93.37;100795.91;5601003;31;34459;-85
2022/01/02 13:33:45;;;;;;;;;;;;;;;10.46;93.15;100794.03;5600462;31;33968;-85
2022/01/02 13:36:58;;;;;;;;;;;;;;;10.40;94.16;100788.41;5600253;31;33613;-87
2022/01/02 13:40:02;;;;;;;;;;;;;;;10.32;94.53;100786.37;5601115;31;33817;-87
2022/01/02 13:43:12;;;;;;;;;;;;;;;10.20;95.30;100783.78;5601885;31;33807;-86
2022/01/02 13:46:19;;;;;;;;;;;;;;;10.17;95.94;100777.91;5600335;31;33917;-86
2022/01/02 13:49:40;;;;;;;;;;;;;;;10.19;96.10;100766.22;5600364;31;33672;-87
2022/01/02 13:52:52;;;;;;;;;;;;;;;10.17;96.24;100768.19;5600924;31;34275;-86
2022/01/02 13:56:07;;;;;;;;;;;;;;;10.12;97.13;100765.06;5600079;31;33584;-86
2022/01/02 13:59:11;;;;;;;;;;;;;;;9.98;97.88;100774.16;5603819;31;33440;-87
2022/01/02 14:02:13;;;;;;;;;;;;;;;9.84;99.30;100774.44;5603940;31;34419;-86
2022/01/02 14:05:16;;;;;;;;;;;;;;;9.67;100.00;100776.66;5604181;31;35012;-86
2022/01/02 14:08:19;;;;;;;;;;;;;;;9.49;100.00;100768.41;5605832;31;33951;-87
2022/01/02 14:11:32;;;;;;;;;;;;;;;9.42;100.00;100761.91;5606904;31;33917;-86
2022/01/02 14:14:47;;;;;;;;;;;;;;;9.32;100.00;100758.31;5606426;31;34671;-86
2022/01/02 14:17:51;;;;;;;;;;;;;;;9.35;100.00;100753.62;5602382;31;33817;-86
2022/01/02 14:21:00;;;;;;;;;;;;;;;9.36;100.00;100754.47;5603085;31;34112;-86
2022/01/02 14:24:04;;;;;;;;;;;;;;;9.25;100.00;100745.63;5602943;31;33879;-86
2022/01/02 14:27:08;;;;;;;;;;;;;;;9.26;100.00;100736.75;5603863;31;34087;-86
2022/01/02 14:30:11;;;;;;;;;;;;;;;9.32;100.00;100726.62;5600726;31;33944;-86
2022/01/02 14:33:14;;;;;;;;;;;;;;;9.27;100.00;100730.50;5601247;31;33821;-86
2022/01/02 14:36:18;;;;;;;;;;;;;;;9.33;100.00;100729.16;5600417;31;34235;-86
2022/01/02 14:39:20;;;;;;;;;;;;;;;9.32;100.00;100735.41;5599613;31;33579;-86
2022/01/02 14:42:26;;;;;;;;;;;;;;;9.26;100.00;100731.47;5600635;31;34173;-86
2022/01/02 14:45:31;;;;;;;;;;;;;;;9.18;100.00;100733.84;5599556;31;34443;-86
2022/01/02 14:48:33;;;;;;;;;;;;;;;9.14;100.00;100745.63;5599159;31;33580;-86
2022/01/02 14:51:39;;;;;;;;;;;;;;;9.09;100.00;100724.03;5599514;31;34440;-86
2022/01/02 14:54:41;;;;;;;;;;;;;;;8.96;100.00;100735.53;5600021;31;35052;-86
2022/01/02 14:57:49;;;;;;;;;;;;;;;8.99;100.00;100728.34;5600580;31;33403;-86
2022/01/02 15:00:52;;;;;;;;;;;;;;;8.80;100.00;100735.91;5599625;31;33527;-86
2022/01/02 15:03:54;;;;;;;;;;;;;;;8.60;100.00;100729.53;5599289;31;33559;-86
2022/01/02 15:06:58;;;;;;;;;;;;;;;8.53;100.00;100728.31;5598845;31;33565;-86
2022/01/02 15:10:08;;;;;;;;;;;;;;;8.37;100.00;100735.69;5599090;31;33915;-85
2022/01/02 15:13:15;;;;;;;;;;;;;;;8.30;100.00;100738.78;5600400;31;34948;-86
2022/01/02 15:16:18;;;;;;;;;;;;;;;8.23;100.00;100740.22;5599145;31;34360;-86
2022/01/02 15:19:21;;;;;;;;;;;;;;;8.15;100.00;100729.41;5598935;31;33789;-86
2022/01/02 15:22:24;;;;;;;;;;;;;;;8.07;100.00;100729.13;5599753;31;33767;-86
2022/01/02 15:25:28;;;;;;;;;;;;;;;8.05;100.00;100723.97;5598972;31;33585;-86
2022/01/02 15:28:32;;;;;;;;;;;;;;;8.11;100.00;100717.41;5600145;31;33610;-86
2022/01/02 15:31:38;;;;;;;;;;;;;;;8.03;100.00;100710.94;5598733;31;33896;-86
2022/01/02 15:34:40;;;;;;;;;;;;;;;8.03;100.00;100712.72;5599269;31;34081;-86
2022/01/02 15:37:48;;;;;;;;;;;;;;;7.97;100.00;100724.53;5603874;31;34711;-86
2022/01/02 15:41:00;;;;;;;;;;;;;;;8.00;100.00;100720.84;5601048;31;33698;-86
2022/01/02 15:44:08;;;;;;;;;;;;;;;7.98;100.00;100720.12;5602623;31;34414;-86
2022/01/02 15:47:11;;;;;;;;;;;;;;;7.95;100.00;100728.25;5602953;31;34832;-86
2022/01/02 15:50:15;;;;;;;;;;;;;;;7.85;100.00;100718.41;5603063;31;34657;-86
2022/01/02 15:53:18;;;;;;;;;;;;;;;7.77;100.00;100712.00;5604670;31;33605;-86
2022/01/02 15:56:23;;;;;;;;;;;;;;;7.73;100.00;100696.44;5594280;31;34849;-86
2022/01/02 15:59:28;;;;;;;;;;;;;;;7.72;100.00;100702.63;5601379;31;33936;-86
2022/01/02 16:02:32;;;;;;;;;;;;;;;7.77;100.00;100714.66;5602184;31;33264;-86